sensor_id;sensor_type;location;lat;lon;timestamp;P1;durP1;ratioP1;P2;durP2;ratioP2
45970;SDS011;31681;48.982;8.394;2024-01-16T00:29:50;7.03;;;4.17;;
45970;SDS011;31681;48.982;8.394;2024-01-16T01:00:30;7.43;;;4.27;;
45970;SDS011;31681;48.982;8.394;2024-01-16T01:03:03;11.20;;;4.27;;
45970;SDS011;31681;48.982;8.394;2024-01-16T01:06:04;7.03;;;3.90;;
45970;SDS011;31681;48.982;8.394;2024-01-16T01:08:29;11.83;;;4.27;;
45970;SDS011;31681;48.982;8.394;2024-01-16T01:10:54;7.10;;;3.63;;
45970;SDS011;31681;48.982;8.394;2024-01-16T01:13:20;9.70;;;4.53;;
45970;SDS011;31681;48.982;8.394;2024-01-16T01:15:45;7.53;;;4.23;;
45970;SDS011;31681;48.982;8.394;2024-01-16T01:18:11;10.50;;;4.13;;
45970;SDS011;31681;48.982;8.394;2024-01-16T01:20:36;7.83;;;4.40;;
45970;SDS011;31681;48.982;8.394;2024-01-16T01:23:01;7.87;;;4.47;;
45970;SDS011;31681;48.982;8.394;2024-01-16T01:25:27;9.37;;;4.07;;
45970;SDS011;31681;48.982;8.394;2024-01-16T01:27:52;9.10;;;4.47;;
45970;SDS011;31681;48.982;8.394;2024-01-16T01:30:18;8.37;;;4.20;;
45970;SDS011;31681;48.982;8.394;2024-01-16T01:32:43;8.07;;;4.37;;
45970;SDS011;31681;48.982;8.394;2024-01-16T01:35:09;11.00;;;3.70;;
45970;SDS011;31681;48.982;8.394;2024-01-16T01:37:35;7.33;;;4.53;;
45970;SDS011;31681;48.982;8.394;2024-01-16T01:40:01;7.63;;;4.10;;
45970;SDS011;31681;48.982;8.394;2024-01-16T01:42:26;8.40;;;4.70;;
45970;SDS011;31681;48.982;8.394;2024-01-16T01:44:52;7.83;;;4.07;;
45970;SDS011;31681;48.982;8.394;2024-01-16T01:47:17;6.90;;;3.77;;
45970;SDS011;31681;48.982;8.394;2024-01-16T01:49:46;8.43;;;4.90;;
45970;SDS011;31681;48.982;8.394;2024-01-16T01:52:11;10.60;;;4.50;;
45970;SDS011;31681;48.982;8.394;2024-01-16T01:54:37;7.03;;;4.40;;
45970;SDS011;31681;48.982;8.394;2024-01-16T01:57:03;8.13;;;4.07;;
45970;SDS011;31681;48.982;8.394;2024-01-16T01:59:32;8.37;;;3.97;;
45970;SDS011;31681;48.982;8.394;2024-01-16T02:02:00;7.77;;;4.30;;
45970;SDS011;31681;48.982;8.394;2024-01-16T02:04:26;7.67;;;3.97;;
45970;SDS011;31681;48.982;8.394;2024-01-16T02:06:53;8.90;;;4.10;;
45970;SDS011;31681;48.982;8.394;2024-01-16T02:09:22;9.60;;;4.63;;
45970;SDS011;31681;48.982;8.394;2024-01-16T02:12:05;8.37;;;4.00;;
45970;SDS011;31681;48.982;8.394;2024-01-16T02:14:40;9.20;;;4.40;;
45970;SDS011;31681;48.982;8.394;2024-01-16T02:17:08;8.40;;;4.10;;
45970;SDS011;31681;48.982;8.394;2024-01-16T02:26:57;9.43;;;4.17;;
45970;SDS011;31681;48.982;8.394;2024-01-16T02:29:22;8.80;;;4.13;;
45970;SDS011;31681;48.982;8.394;2024-01-16T02:31:48;6.67;;;4.37;;
45970;SDS011;31681;48.982;8.394;2024-01-16T02:34:13;7.20;;;4.27;;
45970;SDS011;31681;48.982;8.394;2024-01-16T02:36:38;7.10;;;4.20;;
45970;SDS011;31681;48.982;8.394;2024-01-16T02:39:03;7.03;;;4.13;;
45970;SDS011;31681;48.982;8.394;2024-01-16T02:41:31;8.27;;;4.33;;
45970;SDS011;31681;48.982;8.394;2024-01-16T02:43:56;8.27;;;3.77;;
45970;SDS011;31681;48.982;8.394;2024-01-16T02:46:22;7.93;;;4.23;;
45970;SDS011;31681;48.982;8.394;2024-01-16T02:48:47;7.53;;;4.10;;
45970;SDS011;31681;48.982;8.394;2024-01-16T02:51:13;6.67;;;3.83;;
45970;SDS011;31681;48.982;8.394;2024-01-16T02:53:39;6.53;;;4.23;;
45970;SDS011;31681;48.982;8.394;2024-01-16T02:56:04;7.43;;;4.10;;
45970;SDS011;31681;48.982;8.394;2024-01-16T02:58:30;7.73;;;4.20;;
45970;SDS011;31681;48.982;8.394;2024-01-16T03:00:58;10.03;;;4.67;;
45970;SDS011;31681;48.982;8.394;2024-01-16T03:03:23;8.33;;;3.93;;
45970;SDS011;31681;48.982;8.394;2024-01-16T03:05:49;11.43;;;5.03;;
45970;SDS011;31681;48.982;8.394;2024-01-16T03:08:15;8.07;;;4.60;;
45970;SDS011;31681;48.982;8.394;2024-01-16T03:10:40;10.10;;;4.10;;
45970;SDS011;31681;48.982;8.394;2024-01-16T03:13:06;9.70;;;4.20;;
45970;SDS011;31681;48.982;8.394;2024-01-16T03:15:32;8.23;;;4.83;;
45970;SDS011;31681;48.982;8.394;2024-01-16T03:17:57;8.00;;;4.60;;
45970;SDS011;31681;48.982;8.394;2024-01-16T03:20:26;10.50;;;4.40;;
45970;SDS011;31681;48.982;8.394;2024-01-16T03:22:54;8.00;;;4.27;;
45970;SDS011;31681;48.982;8.394;2024-01-16T03:25:20;7.23;;;4.00;;
45970;SDS011;31681;48.982;8.394;2024-01-16T03:27:49;8.10;;;4.57;;
45970;SDS011;31681;48.982;8.394;2024-01-16T03:30:15;9.07;;;4.10;;
45970;SDS011;31681;48.982;8.394;2024-01-16T03:32:40;9.93;;;4.60;;
45970;SDS011;31681;48.982;8.394;2024-01-16T03:35:27;10.27;;;4.00;;
45970;SDS011;31681;48.982;8.394;2024-01-16T03:38:30;9.30;;;4.73;;
45970;SDS011;31681;48.982;8.394;2024-01-16T03:41:52;8.03;;;4.20;;
45970;SDS011;31681;48.982;8.394;2024-01-16T03:44:40;9.80;;;5.00;;
45970;SDS011;31681;48.982;8.394;2024-01-16T03:47:06;9.70;;;4.10;;
45970;SDS011;31681;48.982;8.394;2024-01-16T03:49:41;10.17;;;4.97;;
45970;SDS011;31681;48.982;8.394;2024-01-16T03:52:28;9.00;;;4.20;;
45970;SDS011;31681;48.982;8.394;2024-01-16T03:55:02;7.87;;;4.03;;
45970;SDS011;31681;48.982;8.394;2024-01-16T03:57:36;8.10;;;3.87;;
45970;SDS011;31681;48.982;8.394;2024-01-16T04:01:07;8.80;;;4.83;;
45970;SDS011;31681;48.982;8.394;2024-01-16T04:03:39;7.73;;;4.17;;
45970;SDS011;31681;48.982;8.394;2024-01-16T04:06:17;9.83;;;4.77;;
45970;SDS011;31681;48.982;8.394;2024-01-16T04:08:43;10.50;;;4.17;;
45970;SDS011;31681;48.982;8.394;2024-01-16T04:11:22;8.20;;;4.53;;
45970;SDS011;31681;48.982;8.394;2024-01-16T04:13:49;8.70;;;3.90;;
45970;SDS011;31681;48.982;8.394;2024-01-16T04:16:21;9.53;;;4.20;;
45970;SDS011;31681;48.982;8.394;2024-01-16T04:18:55;9.53;;;4.23;;
45970;SDS011;31681;48.982;8.394;2024-01-16T04:21:31;10.83;;;4.10;;
45970;SDS011;31681;48.982;8.394;2024-01-16T04:25:00;8.63;;;5.30;;
45970;SDS011;31681;48.982;8.394;2024-01-16T04:27:26;7.97;;;4.20;;
45970;SDS011;31681;48.982;8.394;2024-01-16T04:29:52;9.20;;;4.63;;
45970;SDS011;31681;48.982;8.394;2024-01-16T04:32:27;7.20;;;4.13;;
45970;SDS011;31681;48.982;8.394;2024-01-16T04:36:00;10.13;;;4.10;;
45970;SDS011;31681;48.982;8.394;2024-01-16T04:38:25;7.43;;;4.37;;
45970;SDS011;31681;48.982;8.394;2024-01-16T04:40:51;8.90;;;4.07;;
45970;SDS011;31681;48.982;8.394;2024-01-16T04:43:16;10.13;;;4.53;;
45970;SDS011;31681;48.982;8.394;2024-01-16T04:45:41;8.33;;;4.00;;
45970;SDS011;31681;48.982;8.394;2024-01-16T04:48:07;8.73;;;3.87;;
45970;SDS011;31681;48.982;8.394;2024-01-16T04:50:34;8.70;;;4.43;;
45970;SDS011;31681;48.982;8.394;2024-01-16T04:52:59;8.43;;;4.33;;
45970;SDS011;31681;48.982;8.394;2024-01-16T04:55:25;8.13;;;4.33;;
45970;SDS011;31681;48.982;8.394;2024-01-16T04:57:51;6.80;;;3.83;;
45970;SDS011;31681;48.982;8.394;2024-01-16T05:00:17;9.63;;;4.50;;
45970;SDS011;31681;48.982;8.394;2024-01-16T05:02:42;8.60;;;4.67;;
45970;SDS011;31681;48.982;8.394;2024-01-16T05:05:07;9.83;;;4.60;;
45970;SDS011;31681;48.982;8.394;2024-01-16T05:07:34;9.37;;;4.80;;
45970;SDS011;31681;48.982;8.394;2024-01-16T05:10:02;9.60;;;4.87;;
45970;SDS011;31681;48.982;8.394;2024-01-16T05:12:28;11.23;;;4.87;;
45970;SDS011;31681;48.982;8.394;2024-01-16T05:14:56;9.17;;;4.20;;
45970;SDS011;31681;48.982;8.394;2024-01-16T05:20:16;6.93;;;4.17;;
45970;SDS011;31681;48.982;8.394;2024-01-16T05:22:54;7.30;;;3.97;;
45970;SDS011;31681;48.982;8.394;2024-01-16T05:25:26;8.87;;;4.37;;
45970;SDS011;31681;48.982;8.394;2024-01-16T05:31:47;10.23;;;4.30;;
45970;SDS011;31681;48.982;8.394;2024-01-16T05:34:14;7.30;;;4.03;;
45970;SDS011;31681;48.982;8.394;2024-01-16T05:36:55;10.03;;;5.00;;
45970;SDS011;31681;48.982;8.394;2024-01-16T05:46:27;9.07;;;4.40;;
45970;SDS011;31681;48.982;8.394;2024-01-16T05:48:52;11.03;;;5.10;;
45970;SDS011;31681;48.982;8.394;2024-01-16T05:51:17;9.20;;;5.03;;
45970;SDS011;31681;48.982;8.394;2024-01-16T05:54:01;8.77;;;4.30;;
45970;SDS011;31681;48.982;8.394;2024-01-16T05:56:53;10.87;;;4.63;;
45970;SDS011;31681;48.982;8.394;2024-01-16T06:06:29;9.93;;;5.10;;
45970;SDS011;31681;48.982;8.394;2024-01-16T06:08:54;8.90;;;4.77;;
45970;SDS011;31681;48.982;8.394;2024-01-16T06:11:29;7.00;;;4.57;;
45970;SDS011;31681;48.982;8.394;2024-01-16T06:13:55;9.90;;;4.63;;
45970;SDS011;31681;48.982;8.394;2024-01-16T06:16:20;10.13;;;5.13;;
45970;SDS011;31681;48.982;8.394;2024-01-16T06:18:45;6.83;;;4.10;;
45970;SDS011;31681;48.982;8.394;2024-01-16T06:21:13;9.90;;;4.50;;
45970;SDS011;31681;48.982;8.394;2024-01-16T06:23:58;8.67;;;4.57;;
45970;SDS011;31681;48.982;8.394;2024-01-16T06:27:04;11.03;;;5.00;;
45970;SDS011;31681;48.982;8.394;2024-01-16T06:29:50;7.77;;;4.40;;
45970;SDS011;31681;48.982;8.394;2024-01-16T06:36:08;8.13;;;4.53;;
45970;SDS011;31681;48.982;8.394;2024-01-16T06:39:00;10.57;;;5.03;;
45970;SDS011;31681;48.982;8.394;2024-01-16T06:42:15;10.97;;;5.03;;
45970;SDS011;31681;48.982;8.394;2024-01-16T06:44:41;8.00;;;3.83;;
45970;SDS011;31681;48.982;8.394;2024-01-16T06:47:06;7.93;;;4.90;;
45970;SDS011;31681;48.982;8.394;2024-01-16T06:49:32;10.43;;;4.90;;
45970;SDS011;31681;48.982;8.394;2024-01-16T06:52:07;8.43;;;4.50;;
45970;SDS011;31681;48.982;8.394;2024-01-16T06:58:06;7.50;;;4.10;;
45970;SDS011;31681;48.982;8.394;2024-01-16T07:00:39;7.20;;;4.80;;
45970;SDS011;31681;48.982;8.394;2024-01-16T07:03:11;10.47;;;4.60;;
45970;SDS011;31681;48.982;8.394;2024-01-16T07:06:10;10.37;;;3.90;;
45970;SDS011;31681;48.982;8.394;2024-01-16T07:09:28;9.90;;;5.27;;
45970;SDS011;31681;48.982;8.394;2024-01-16T07:11:53;9.17;;;4.43;;
45970;SDS011;31681;48.982;8.394;2024-01-16T07:14:21;7.43;;;4.40;;
45970;SDS011;31681;48.982;8.394;2024-01-16T07:16:47;7.23;;;4.43;;
45970;SDS011;31681;48.982;8.394;2024-01-16T07:19:12;9.40;;;4.57;;
45970;SDS011;31681;48.982;8.394;2024-01-16T07:21:38;12.47;;;4.97;;
45970;SDS011;31681;48.982;8.394;2024-01-16T07:24:03;8.73;;;4.53;;
45970;SDS011;31681;48.982;8.394;2024-01-16T07:26:31;10.53;;;4.83;;
45970;SDS011;31681;48.982;8.394;2024-01-16T07:28:57;10.37;;;4.80;;
45970;SDS011;31681;48.982;8.394;2024-01-16T07:31:23;10.37;;;5.10;;
45970;SDS011;31681;48.982;8.394;2024-01-16T07:33:51;8.80;;;4.63;;
45970;SDS011;31681;48.982;8.394;2024-01-16T07:36:22;7.93;;;4.40;;
45970;SDS011;31681;48.982;8.394;2024-01-16T07:38:47;11.40;;;5.00;;
45970;SDS011;31681;48.982;8.394;2024-01-16T07:41:13;9.63;;;4.87;;
45970;SDS011;31681;48.982;8.394;2024-01-16T07:43:38;9.07;;;4.70;;
45970;SDS011;31681;48.982;8.394;2024-01-16T07:46:03;13.73;;;5.50;;
45970;SDS011;31681;48.982;8.394;2024-01-16T07:48:29;9.07;;;4.07;;
45970;SDS011;31681;48.982;8.394;2024-01-16T07:50:55;8.23;;;4.57;;
45970;SDS011;31681;48.982;8.394;2024-01-16T07:53:20;8.80;;;4.43;;
45970;SDS011;31681;48.982;8.394;2024-01-16T07:55:45;10.93;;;4.40;;
45970;SDS011;31681;48.982;8.394;2024-01-16T07:58:11;9.47;;;4.50;;
45970;SDS011;31681;48.982;8.394;2024-01-16T08:00:36;6.87;;;4.33;;
45970;SDS011;31681;48.982;8.394;2024-01-16T08:03:02;9.90;;;4.33;;
45970;SDS011;31681;48.982;8.394;2024-01-16T08:05:28;9.80;;;4.50;;
45970;SDS011;31681;48.982;8.394;2024-01-16T08:07:55;7.60;;;4.37;;
45970;SDS011;31681;48.982;8.394;2024-01-16T08:10:20;9.67;;;4.67;;
45970;SDS011;31681;48.982;8.394;2024-01-16T08:12:46;6.87;;;3.90;;
45970;SDS011;31681;48.982;8.394;2024-01-16T08:15:11;8.67;;;4.70;;
45970;SDS011;31681;48.982;8.394;2024-01-16T08:17:36;9.73;;;4.63;;
45970;SDS011;31681;48.982;8.394;2024-01-16T08:20:02;9.40;;;4.40;;
45970;SDS011;31681;48.982;8.394;2024-01-16T08:22:28;9.20;;;5.00;;
45970;SDS011;31681;48.982;8.394;2024-01-16T08:27:38;9.17;;;4.27;;
45970;SDS011;31681;48.982;8.394;2024-01-16T08:30:30;9.90;;;4.50;;
45970;SDS011;31681;48.982;8.394;2024-01-16T08:32:55;10.43;;;4.87;;
45970;SDS011;31681;48.982;8.394;2024-01-16T08:35:21;11.50;;;4.50;;
45970;SDS011;31681;48.982;8.394;2024-01-16T08:37:47;7.20;;;4.33;;
45970;SDS011;31681;48.982;8.394;2024-01-16T08:40:12;7.77;;;4.40;;
45970;SDS011;31681;48.982;8.394;2024-01-16T08:42:38;8.87;;;4.87;;
45970;SDS011;31681;48.982;8.394;2024-01-16T08:45:03;7.77;;;4.23;;
45970;SDS011;31681;48.982;8.394;2024-01-16T08:47:30;8.80;;;4.33;;
45970;SDS011;31681;48.982;8.394;2024-01-16T08:49:55;10.77;;;4.67;;
45970;SDS011;31681;48.982;8.394;2024-01-16T08:52:21;8.10;;;4.40;;
45970;SDS011;31681;48.982;8.394;2024-01-16T08:54:47;9.73;;;4.20;;
45970;SDS011;31681;48.982;8.394;2024-01-16T08:57:15;8.93;;;4.27;;
45970;SDS011;31681;48.982;8.394;2024-01-16T08:59:41;11.77;;;5.17;;
45970;SDS011;31681;48.982;8.394;2024-01-16T09:02:06;10.00;;;4.97;;
45970;SDS011;31681;48.982;8.394;2024-01-16T09:04:32;8.13;;;4.63;;
45970;SDS011;31681;48.982;8.394;2024-01-16T09:06:58;9.47;;;5.00;;
45970;SDS011;31681;48.982;8.394;2024-01-16T09:09:24;8.70;;;5.00;;
45970;SDS011;31681;48.982;8.394;2024-01-16T09:11:49;6.07;;;4.00;;
45970;SDS011;31681;48.982;8.394;2024-01-16T09:14:20;9.60;;;4.57;;
45970;SDS011;31681;48.982;8.394;2024-01-16T09:16:49;9.47;;;4.77;;
45970;SDS011;31681;48.982;8.394;2024-01-16T09:19:15;8.33;;;4.60;;
45970;SDS011;31681;48.982;8.394;2024-01-16T09:21:42;9.90;;;5.30;;
45970;SDS011;31681;48.982;8.394;2024-01-16T09:24:08;9.40;;;4.67;;
45970;SDS011;31681;48.982;8.394;2024-01-16T09:26:37;6.53;;;4.30;;
45970;SDS011;31681;48.982;8.394;2024-01-16T09:29:05;8.93;;;4.87;;
45970;SDS011;31681;48.982;8.394;2024-01-16T09:31:30;9.30;;;4.73;;
45970;SDS011;31681;48.982;8.394;2024-01-16T09:33:55;7.67;;;4.80;;
45970;SDS011;31681;48.982;8.394;2024-01-16T09:36:21;9.17;;;5.07;;
45970;SDS011;31681;48.982;8.394;2024-01-16T09:38:46;7.47;;;4.47;;
45970;SDS011;31681;48.982;8.394;2024-01-16T09:41:11;7.43;;;4.27;;
45970;SDS011;31681;48.982;8.394;2024-01-16T09:43:41;10.97;;;4.47;;
45970;SDS011;31681;48.982;8.394;2024-01-16T09:46:10;7.30;;;4.30;;
45970;SDS011;31681;48.982;8.394;2024-01-16T09:48:35;8.47;;;4.20;;
45970;SDS011;31681;48.982;8.394;2024-01-16T09:51:01;9.27;;;4.27;;
45970;SDS011;31681;48.982;8.394;2024-01-16T09:53:29;7.33;;;5.03;;
45970;SDS011;31681;48.982;8.394;2024-01-16T09:55:54;12.60;;;5.17;;
45970;SDS011;31681;48.982;8.394;2024-01-16T09:58:23;9.00;;;4.87;;
45970;SDS011;31681;48.982;8.394;2024-01-16T10:00:56;8.03;;;4.67;;
45970;SDS011;31681;48.982;8.394;2024-01-16T10:03:22;10.10;;;4.90;;
45970;SDS011;31681;48.982;8.394;2024-01-16T10:05:48;11.60;;;4.60;;
45970;SDS011;31681;48.982;8.394;2024-01-16T10:08:16;12.13;;;4.30;;
45970;SDS011;31681;48.982;8.394;2024-01-16T10:10:46;11.70;;;4.60;;
45970;SDS011;31681;48.982;8.394;2024-01-16T10:13:11;10.93;;;5.60;;
45970;SDS011;31681;48.982;8.394;2024-01-16T10:15:37;10.90;;;5.03;;
45970;SDS011;31681;48.982;8.394;2024-01-16T10:18:10;8.87;;;4.40;;
45970;SDS011;31681;48.982;8.394;2024-01-16T10:20:46;8.13;;;4.83;;
45970;SDS011;31681;48.982;8.394;2024-01-16T10:23:11;9.33;;;4.53;;
45970;SDS011;31681;48.982;8.394;2024-01-16T10:25:47;7.60;;;4.00;;
45970;SDS011;31681;48.982;8.394;2024-01-16T10:28:29;7.70;;;4.47;;
45970;SDS011;31681;48.982;8.394;2024-01-16T10:31:01;9.87;;;4.53;;
45970;SDS011;31681;48.982;8.394;2024-01-16T10:33:26;7.57;;;4.10;;
45970;SDS011;31681;48.982;8.394;2024-01-16T10:38:43;8.63;;;4.47;;
45970;SDS011;31681;48.982;8.394;2024-01-16T10:41:15;8.50;;;4.07;;
45970;SDS011;31681;48.982;8.394;2024-01-16T10:43:44;11.97;;;4.57;;
45970;SDS011;31681;48.982;8.394;2024-01-16T10:46:14;10.43;;;4.83;;
45970;SDS011;31681;48.982;8.394;2024-01-16T10:48:40;11.07;;;5.00;;
45970;SDS011;31681;48.982;8.394;2024-01-16T10:51:07;6.97;;;3.63;;
45970;SDS011;31681;48.982;8.394;2024-01-16T10:53:34;6.57;;;3.80;;
45970;SDS011;31681;48.982;8.394;2024-01-16T10:56:00;7.77;;;4.57;;
45970;SDS011;31681;48.982;8.394;2024-01-16T10:58:25;9.57;;;4.10;;
45970;SDS011;31681;48.982;8.394;2024-01-16T11:00:54;5.33;;;3.77;;
45970;SDS011;31681;48.982;8.394;2024-01-16T11:03:25;10.90;;;4.60;;
45970;SDS011;31681;48.982;8.394;2024-01-16T11:05:57;7.57;;;4.30;;
45970;SDS011;31681;48.982;8.394;2024-01-16T11:08:22;6.83;;;3.77;;
45970;SDS011;31681;48.982;8.394;2024-01-16T11:10:54;7.53;;;3.80;;
45970;SDS011;31681;48.982;8.394;2024-01-16T11:13:20;10.90;;;4.10;;
45970;SDS011;31681;48.982;8.394;2024-01-16T11:15:47;7.83;;;3.80;;
45970;SDS011;31681;48.982;8.394;2024-01-16T11:18:14;4.53;;;2.83;;
45970;SDS011;31681;48.982;8.394;2024-01-16T11:20:39;6.87;;;3.40;;
45970;SDS011;31681;48.982;8.394;2024-01-16T11:23:08;8.33;;;4.30;;
45970;SDS011;31681;48.982;8.394;2024-01-16T11:25:34;7.40;;;4.10;;
45970;SDS011;31681;48.982;8.394;2024-01-16T11:28:12;7.13;;;3.73;;
45970;SDS011;31681;48.982;8.394;2024-01-16T11:30:38;4.90;;;3.37;;
45970;SDS011;31681;48.982;8.394;2024-01-16T11:33:04;9.27;;;4.17;;
45970;SDS011;31681;48.982;8.394;2024-01-16T11:38:03;9.87;;;4.10;;
45970;SDS011;31681;48.982;8.394;2024-01-16T11:40:30;6.50;;;3.67;;
45970;SDS011;31681;48.982;8.394;2024-01-16T11:42:56;7.47;;;3.40;;
45970;SDS011;31681;48.982;8.394;2024-01-16T11:48:30;8.63;;;5.17;;
45970;SDS011;31681;48.982;8.394;2024-01-16T11:50:48;7.53;;;3.97;;
45970;SDS011;31681;48.982;8.394;2024-01-16T12:01:03;7.13;;;3.97;;
45970;SDS011;31681;48.982;8.394;2024-01-16T12:03:30;9.43;;;3.90;;
45970;SDS011;31681;48.982;8.394;2024-01-16T12:05:59;6.50;;;3.00;;
45970;SDS011;31681;48.982;8.394;2024-01-16T12:08:25;8.30;;;4.10;;
45970;SDS011;31681;48.982;8.394;2024-01-16T12:10:50;5.40;;;3.53;;
45970;SDS011;31681;48.982;8.394;2024-01-16T12:13:16;7.33;;;3.80;;
45970;SDS011;31681;48.982;8.394;2024-01-16T12:15:42;6.07;;;3.73;;
45970;SDS011;31681;48.982;8.394;2024-01-16T12:18:07;6.60;;;3.47;;
45970;SDS011;31681;48.982;8.394;2024-01-16T12:20:34;6.80;;;3.47;;
45970;SDS011;31681;48.982;8.394;2024-01-16T12:23:00;9.93;;;3.47;;
45970;SDS011;31681;48.982;8.394;2024-01-16T12:25:26;5.40;;;3.13;;
45970;SDS011;31681;48.982;8.394;2024-01-16T12:27:55;5.57;;;3.27;;
45970;SDS011;31681;48.982;8.394;2024-01-16T12:30:26;6.63;;;3.37;;
45970;SDS011;31681;48.982;8.394;2024-01-16T12:33:02;4.97;;;3.27;;
45970;SDS011;31681;48.982;8.394;2024-01-16T12:35:27;5.47;;;3.23;;
45970;SDS011;31681;48.982;8.394;2024-01-16T12:37:59;8.80;;;4.37;;
45970;SDS011;31681;48.982;8.394;2024-01-16T12:40:25;8.13;;;4.47;;
45970;SDS011;31681;48.982;8.394;2024-01-16T12:42:50;8.87;;;4.00;;
45970;SDS011;31681;48.982;8.394;2024-01-16T12:45:16;9.97;;;4.87;;
45970;SDS011;31681;48.982;8.394;2024-01-16T12:47:42;9.93;;;4.03;;
45970;SDS011;31681;48.982;8.394;2024-01-16T12:50:08;7.77;;;4.30;;
45970;SDS011;31681;48.982;8.394;2024-01-16T12:52:33;7.67;;;3.67;;
45970;SDS011;31681;48.982;8.394;2024-01-16T12:54:59;7.57;;;3.67;;
45970;SDS011;31681;48.982;8.394;2024-01-16T12:57:26;8.93;;;3.50;;
45970;SDS011;31681;48.982;8.394;2024-01-16T12:59:51;5.43;;;3.23;;
45970;SDS011;31681;48.982;8.394;2024-01-16T13:02:20;5.57;;;3.90;;
45970;SDS011;31681;48.982;8.394;2024-01-16T13:04:47;5.13;;;3.30;;
45970;SDS011;31681;48.982;8.394;2024-01-16T13:07:15;6.47;;;3.47;;
45970;SDS011;31681;48.982;8.394;2024-01-16T13:09:41;6.87;;;3.33;;
45970;SDS011;31681;48.982;8.394;2024-01-16T13:12:07;5.00;;;3.10;;
45970;SDS011;31681;48.982;8.394;2024-01-16T13:14:33;5.60;;;2.93;;
45970;SDS011;31681;48.982;8.394;2024-01-16T13:16:59;4.80;;;2.73;;
45970;SDS011;31681;48.982;8.394;2024-01-16T13:19:26;6.83;;;2.93;;
45970;SDS011;31681;48.982;8.394;2024-01-16T13:21:54;6.57;;;2.93;;
45970;SDS011;31681;48.982;8.394;2024-01-16T13:24:19;6.93;;;3.20;;
45970;SDS011;31681;48.982;8.394;2024-01-16T13:26:48;5.53;;;3.30;;
45970;SDS011;31681;48.982;8.394;2024-01-16T13:29:16;8.03;;;3.07;;
45970;SDS011;31681;48.982;8.394;2024-01-16T13:31:41;4.70;;;3.30;;
45970;SDS011;31681;48.982;8.394;2024-01-16T13:34:08;6.70;;;3.47;;
45970;SDS011;31681;48.982;8.394;2024-01-16T13:36:37;7.50;;;3.63;;
45970;SDS011;31681;48.982;8.394;2024-01-16T13:39:02;6.97;;;3.30;;
45970;SDS011;31681;48.982;8.394;2024-01-16T13:41:31;4.70;;;2.47;;
45970;SDS011;31681;48.982;8.394;2024-01-16T13:44:05;4.60;;;2.80;;
45970;SDS011;31681;48.982;8.394;2024-01-16T13:46:31;6.30;;;3.30;;
45970;SDS011;31681;48.982;8.394;2024-01-16T13:48:59;4.13;;;2.70;;
45970;SDS011;31681;48.982;8.394;2024-01-16T13:51:26;6.57;;;3.20;;
45970;SDS011;31681;48.982;8.394;2024-01-16T13:53:54;7.17;;;3.40;;
45970;SDS011;31681;48.982;8.394;2024-01-16T13:56:20;6.03;;;3.37;;
45970;SDS011;31681;48.982;8.394;2024-01-16T13:58:46;3.80;;;2.70;;
45970;SDS011;31681;48.982;8.394;2024-01-16T14:01:11;5.67;;;3.30;;
45970;SDS011;31681;48.982;8.394;2024-01-16T14:03:37;5.30;;;3.30;;
45970;SDS011;31681;48.982;8.394;2024-01-16T14:06:03;6.90;;;3.07;;
45970;SDS011;31681;48.982;8.394;2024-01-16T14:08:29;6.27;;;2.87;;
45970;SDS011;31681;48.982;8.394;2024-01-16T14:10:54;6.67;;;3.00;;
45970;SDS011;31681;48.982;8.394;2024-01-16T14:13:21;5.53;;;3.00;;
45970;SDS011;31681;48.982;8.394;2024-01-16T14:15:50;5.97;;;2.90;;
45970;SDS011;31681;48.982;8.394;2024-01-16T14:18:15;7.83;;;3.23;;
45970;SDS011;31681;48.982;8.394;2024-01-16T14:20:41;4.90;;;2.63;;
45970;SDS011;31681;48.982;8.394;2024-01-16T14:23:06;6.33;;;2.40;;
45970;SDS011;31681;48.982;8.394;2024-01-16T14:25:43;3.63;;;2.30;;
45970;SDS011;31681;48.982;8.394;2024-01-16T14:28:18;5.47;;;2.77;;
45970;SDS011;31681;48.982;8.394;2024-01-16T14:30:51;5.40;;;2.47;;
45970;SDS011;31681;48.982;8.394;2024-01-16T14:33:16;5.80;;;2.50;;
45970;SDS011;31681;48.982;8.394;2024-01-16T14:35:44;6.87;;;2.20;;
45970;SDS011;31681;48.982;8.394;2024-01-16T14:38:12;5.87;;;2.63;;
45970;SDS011;31681;48.982;8.394;2024-01-16T14:40:40;5.53;;;2.97;;
45970;SDS011;31681;48.982;8.394;2024-01-16T14:43:05;6.20;;;3.23;;
45970;SDS011;31681;48.982;8.394;2024-01-16T14:45:33;5.90;;;3.20;;
45970;SDS011;31681;48.982;8.394;2024-01-16T14:48:02;6.63;;;3.40;;
45970;SDS011;31681;48.982;8.394;2024-01-16T14:50:39;4.43;;;2.63;;
45970;SDS011;31681;48.982;8.394;2024-01-16T14:53:06;6.13;;;3.33;;
45970;SDS011;31681;48.982;8.394;2024-01-16T14:55:34;6.97;;;3.30;;
45970;SDS011;31681;48.982;8.394;2024-01-16T14:58:06;5.60;;;2.83;;
45970;SDS011;31681;48.982;8.394;2024-01-16T15:03:19;8.23;;;2.80;;
45970;SDS011;31681;48.982;8.394;2024-01-16T15:05:48;5.97;;;2.60;;
45970;SDS011;31681;48.982;8.394;2024-01-16T15:08:13;7.57;;;2.57;;
45970;SDS011;31681;48.982;8.394;2024-01-16T15:10:39;8.47;;;2.90;;
45970;SDS011;31681;48.982;8.394;2024-01-16T15:13:04;6.73;;;2.93;;
45970;SDS011;31681;48.982;8.394;2024-01-16T15:15:33;5.60;;;2.60;;
45970;SDS011;31681;48.982;8.394;2024-01-16T15:17:59;4.90;;;2.27;;
45970;SDS011;31681;48.982;8.394;2024-01-16T15:20:27;6.93;;;2.60;;
45970;SDS011;31681;48.982;8.394;2024-01-16T15:22:56;7.70;;;2.20;;
45970;SDS011;31681;48.982;8.394;2024-01-16T15:25:27;7.87;;;2.73;;
45970;SDS011;31681;48.982;8.394;2024-01-16T15:27:53;4.83;;;2.00;;
45970;SDS011;31681;48.982;8.394;2024-01-16T15:30:20;6.80;;;2.30;;
45970;SDS011;31681;48.982;8.394;2024-01-16T15:32:49;6.33;;;2.30;;
45970;SDS011;31681;48.982;8.394;2024-01-16T15:35:18;5.10;;;2.20;;
45970;SDS011;31681;48.982;8.394;2024-01-16T15:37:48;7.10;;;2.40;;
45970;SDS011;31681;48.982;8.394;2024-01-16T15:40:13;4.47;;;2.20;;
45970;SDS011;31681;48.982;8.394;2024-01-16T15:42:40;4.80;;;1.83;;
45970;SDS011;31681;48.982;8.394;2024-01-16T15:45:06;6.70;;;2.43;;
45970;SDS011;31681;48.982;8.394;2024-01-16T15:47:37;4.77;;;1.77;;
45970;SDS011;31681;48.982;8.394;2024-01-16T15:50:03;6.33;;;2.47;;
45970;SDS011;31681;48.982;8.394;2024-01-16T15:52:32;4.70;;;2.13;;
45970;SDS011;31681;48.982;8.394;2024-01-16T15:55:01;4.73;;;2.30;;
45970;SDS011;31681;48.982;8.394;2024-01-16T15:57:36;5.37;;;2.40;;
45970;SDS011;31681;48.982;8.394;2024-01-16T16:00:08;4.27;;;2.20;;
45970;SDS011;31681;48.982;8.394;2024-01-16T16:02:38;5.20;;;2.20;;
45970;SDS011;31681;48.982;8.394;2024-01-16T16:05:04;5.10;;;2.30;;
45970;SDS011;31681;48.982;8.394;2024-01-16T16:07:32;5.63;;;2.30;;
45970;SDS011;31681;48.982;8.394;2024-01-16T16:10:00;4.53;;;2.40;;
45970;SDS011;31681;48.982;8.394;2024-01-16T16:12:33;4.57;;;2.40;;
45970;SDS011;31681;48.982;8.394;2024-01-16T16:14:58;7.13;;;2.50;;
45970;SDS011;31681;48.982;8.394;2024-01-16T16:17:24;5.03;;;2.20;;
45970;SDS011;31681;48.982;8.394;2024-01-16T16:19:50;6.30;;;2.20;;
45970;SDS011;31681;48.982;8.394;2024-01-16T16:22:19;3.03;;;2.30;;
45970;SDS011;31681;48.982;8.394;2024-01-16T16:24:49;3.40;;;2.10;;
45970;SDS011;31681;48.982;8.394;2024-01-16T16:27:24;8.10;;;2.40;;
45970;SDS011;31681;48.982;8.394;2024-01-16T16:29:51;5.93;;;2.40;;
45970;SDS011;31681;48.982;8.394;2024-01-16T16:32:16;6.57;;;2.30;;
45970;SDS011;31681;48.982;8.394;2024-01-16T16:34:43;3.43;;;2.10;;
45970;SDS011;31681;48.982;8.394;2024-01-16T16:37:09;8.70;;;2.50;;
45970;SDS011;31681;48.982;8.394;2024-01-16T16:39:34;8.87;;;2.50;;
45970;SDS011;31681;48.982;8.394;2024-01-16T16:41:59;5.17;;;2.47;;
45970;SDS011;31681;48.982;8.394;2024-01-16T16:44:25;6.07;;;2.33;;
45970;SDS011;31681;48.982;8.394;2024-01-16T16:46:51;7.33;;;2.67;;
45970;SDS011;31681;48.982;8.394;2024-01-16T16:49:16;11.37;;;3.33;;
45970;SDS011;31681;48.982;8.394;2024-01-16T16:51:42;7.70;;;3.67;;